YYEA weather

Yeaburn Airport
Victoria, Australia

Public forecast

Using degrees Celsius for public forecast. Weather courtesy of forecast.io.

METAR (pilot weather report)

Closest report is Melbourne International Airport, 37.7 nm (69.9 km) SW. Retrieved 2019/04/23 03:00 UTC (30 minutes ago):

YMML 230300Z 15007KT 9999 FEW024 BKN062 BKN100 17/10 Q1027 NOSIG

TAF (pilot weather forecast)

Forecast is more than 12 hours old.

Closest forecast is Melbourne International Airport, 37.7 nm (69.9 km) SW. Retrieved 2019/04/22 00:38 UTC (1 day ago):

TAF YMML 222313Z 2300/2406 17011KT 9999 SCT025 BECMG 2315/2317 28005KT 9999 -DZ FEW012 BKN018 BECMG 2322/2324 26006KT 9999 BKN020 FM240300 20008KT 9999 SCT025 TEMPO 2318/2324 3000 SHRA BKN010